Time;durP1;ratioP1;P1;durP2;ratioP2;P2;SDS_P1;SDS_P2;PMS_P1;PMS_P2;Temp;Humidity;BMP_temperature;BMP_pressure;BME280_temperature;BME280_humidity;BME280_pressure;Samples;Min_cycle;Max_cycle;Signal;HPM_P1;HPM_P2
2024/03/25 00:00:29;;;;;;;;;12.00;11.75;;;;;10.73;59.83;100649.28;5096105;27;45444;-76
2024/03/25 00:02:54;;;;;;;;;13.50;10.50;;;;;10.67;60.02;100647.66;5080716;27;45481;-76
2024/03/25 00:05:25;;;;;;;;;13.75;10.00;;;;;10.73;60.01;100662.63;5061688;28;52117;-76
2024/03/25 00:07:50;;;;;;;;;15.00;11.25;;;;;10.72;60.16;100671.53;5080346;27;47135;-76
2024/03/25 00:10:16;;;;;;;;;12.00;9.25;;;;;10.69;60.78;100660.97;5080356;27;45329;-76
2024/03/25 00:12:41;;;;;;;;;10.50;9.25;;;;;10.65;60.89;100660.19;5080662;28;45438;-77
2024/03/25 00:15:07;;;;;;;;;14.25;6.25;;;;;10.54;61.12;100641.91;5078516;28;51881;-76
2024/03/25 00:17:33;;;;;;;;;12.50;10.00;;;;;10.59;60.59;100655.06;5080233;27;45976;-76
2024/03/25 00:19:59;;;;;;;;;15.50;13.00;;;;;10.66;61.18;100671.75;5080153;27;45352;-76
2024/03/25 00:22:26;;;;;;;;;14.25;11.00;;;;;10.65;60.70;100668.22;5080548;28;45365;-76
2024/03/25 00:24:52;;;;;;;;;11.00;11.00;;;;;10.58;61.19;100653.34;5080131;27;45536;-76
2024/03/25 00:27:18;;;;;;;;;18.00;16.25;;;;;10.53;61.07;100652.63;5080114;28;46504;-77
2024/03/25 00:29:44;;;;;;;;;20.50;17.75;;;;;10.60;61.18;100656.81;5079919;27;45267;-76
2024/03/25 00:32:10;;;;;;;;;19.00;16.50;;;;;10.55;60.89;100659.63;5080208;28;45519;-76
2024/03/25 00:34:36;;;;;;;;;19.25;17.00;;;;;10.60;60.83;100658.63;5078663;28;45350;-76
2024/03/25 00:37:03;;;;;;;;;19.25;19.25;;;;;10.51;60.67;100651.81;5078690;27;45985;-76
2024/03/25 00:39:32;;;;;;;;;20.00;16.75;;;;;10.52;60.72;100662.44;5078651;28;45801;-76
2024/03/25 00:41:57;;;;;;;;;17.50;17.25;;;;;10.39;60.58;100642.41;5080261;27;45403;-76
2024/03/25 00:44:23;;;;;;;;;19.00;16.75;;;;;10.46;60.74;100659.97;5077871;28;45444;-76
2024/03/25 00:46:48;;;;;;;;;20.75;18.00;;;;;10.43;60.53;100638.69;5078377;28;46720;-76
2024/03/25 00:49:13;;;;;;;;;15.50;13.25;;;;;10.45;60.55;100646.66;5079689;27;45306;-76
2024/03/25 00:51:39;;;;;;;;;17.00;16.75;;;;;10.43;60.60;100641.38;5080071;27;45306;-76
2024/03/25 00:54:04;;;;;;;;;16.75;16.25;;;;;10.36;60.55;100626.50;5078481;28;45661;-76
2024/03/25 00:56:33;;;;;;;;;14.00;11.00;;;;;10.37;60.92;100623.78;5079605;28;46442;-76
2024/03/25 00:59:02;;;;;;;;;16.00;14.25;;;;;10.28;61.00;100601.84;5079542;27;45701;-76
2024/03/25 01:01:31;;;;;;;;;19.00;17.50;;;;;10.38;60.75;100616.63;5079801;28;45506;-76
2024/03/25 01:03:57;;;;;;;;;23.50;18.00;;;;;10.30;60.95;100611.50;5079584;28;45333;-76
2024/03/25 01:06:22;;;;;;;;;22.00;17.50;;;;;10.32;60.86;100609.72;5078330;28;48115;-76
2024/03/25 01:08:47;;;;;;;;;24.25;23.25;;;;;10.23;60.98;100596.66;5079448;27;45389;-76
2024/03/25 01:11:13;;;;;;;;;29.75;24.00;;;;;10.22;60.86;100586.03;5079411;27;48334;-76
2024/03/25 01:13:38;;;;;;;;;31.50;27.50;;;;;10.22;61.25;100594.03;5077918;28;45598;-76
2024/03/25 01:16:04;;;;;;;;;27.25;25.25;;;;;10.10;61.11;100582.84;5079348;27;46411;-76
2024/03/25 01:18:29;;;;;;;;;35.00;29.75;;;;;10.15;60.63;100594.22;5078685;27;45371;-76
2024/03/25 01:20:54;;;;;;;;;32.00;29.75;;;;;10.14;61.32;100584.50;5078259;28;45344;-76
2024/03/25 01:23:20;;;;;;;;;30.25;26.00;;;;;10.17;61.42;100591.50;5079311;27;45523;-76
2024/03/25 01:25:45;;;;;;;;;32.75;29.50;;;;;10.16;61.75;100592.44;5077723;28;47208;-76
2024/03/25 01:28:11;;;;;;;;;32.50;27.50;;;;;10.11;61.19;100581.94;5078689;27;54779;-76
2024/03/25 01:30:38;;;;;;;;;32.25;30.25;;;;;10.08;61.47;100579.34;5079334;27;45431;-76
2024/03/25 01:33:05;;;;;;;;;38.25;30.25;;;;;10.09;61.21;100574.88;5079131;27;45553;-76
2024/03/25 01:35:30;;;;;;;;;24.00;21.00;;;;;10.15;61.43;100580.03;5077604;28;47825;-76
2024/03/25 01:37:56;;;;;;;;;34.50;29.25;;;;;10.14;61.71;100564.94;5079103;27;45356;-76
2024/03/25 01:40:21;;;;;;;;;30.75;22.00;;;;;10.13;61.82;100556.06;5079158;27;45605;-76
2024/03/25 01:42:56;;;;;;;;;24.25;22.75;;;;;10.07;61.98;100550.06;5079240;28;45469;-76
2024/03/25 01:45:22;;;;;;;;;26.25;22.50;;;;;10.03;61.81;100541.31;5078835;27;45557;-76
2024/03/25 01:47:47;;;;;;;;;22.75;20.75;;;;;9.90;61.45;100529.28;5079570;28;45423;-76
2024/03/25 01:50:13;;;;;;;;;19.75;18.50;;;;;10.02;62.21;100547.53;5082817;27;45588;-76
2024/03/25 01:52:40;;;;;;;;;21.00;18.75;;;;;9.98;61.95;100546.78;5082540;27;45622;-76
2024/03/25 01:55:09;;;;;;;;;20.25;17.00;;;;;9.93;61.97;100535.41;5082571;27;46130;-76
2024/03/25 01:57:37;;;;;;;;;18.00;15.75;;;;;9.76;62.34;100503.97;5082615;27;45333;-76
2024/03/25 02:00:04;;;;;;;;;18.75;16.75;;;;;9.92;62.61;100532.78;5082509;27;45401;-76
2024/03/25 02:02:30;;;;;;;;;23.25;18.00;;;;;9.93;62.01;100524.72;5082281;27;45857;-77
2024/03/25 02:04:55;;;;;;;;;18.00;15.75;;;;;9.87;62.09;100514.25;5082316;27;45710;-76
2024/03/25 02:07:23;;;;;;;;;16.75;16.50;;;;;9.89;62.35;100511.53;5082434;27;45476;-76
2024/03/25 02:09:49;;;;;;;;;17.25;15.00;;;;;9.76;62.16;100484.44;5082567;27;45342;-76
2024/03/25 02:12:14;;;;;;;;;21.50;17.75;;;;;9.77;62.59;100488.81;5080913;28;46733;-76
2024/03/25 02:14:40;;;;;;;;;18.00;15.25;;;;;9.82;63.00;100494.88;5080606;28;46743;-76
2024/03/25 02:17:06;;;;;;;;;21.25;20.50;;;;;9.80;63.19;100494.06;5080694;28;45351;-76
2024/03/25 02:19:32;;;;;;;;;24.50;20.25;;;;;9.79;62.90;100487.00;5098073;27;45575;-76
2024/03/25 02:21:57;;;;;;;;;19.75;19.25;;;;;9.74;63.11;100475.59;5082260;27;45314;-76
2024/03/25 02:24:25;;;;;;;;;17.25;14.75;;;;;9.73;62.80;100481.88;5080650;28;47050;-76
2024/03/25 02:26:50;;;;;;;;;19.50;16.75;;;;;9.74;63.21;100478.25;5077177;27;46424;-76
2024/03/25 02:29:16;;;;;;;;;14.00;12.50;;;;;9.75;62.83;100474.69;5074538;28;45465;-76
2024/03/25 02:31:41;;;;;;;;;18.75;17.75;;;;;9.66;63.12;100467.00;5081497;28;54103;-76
2024/03/25 02:34:06;;;;;;;;;15.75;15.75;;;;;9.61;62.95;100453.84;5082108;27;46092;-76
2024/03/25 02:36:32;;;;;;;;;22.50;21.25;;;;;9.73;63.44;100479.22;5081509;28;49340;-76
2024/03/25 02:38:59;;;;;;;;;18.50;16.50;;;;;9.64;63.62;100461.72;5082138;27;45508;-76
2024/03/25 02:41:24;;;;;;;;;16.50;16.50;;;;;9.57;63.48;100446.84;5081885;27;45335;-76
2024/03/25 02:43:50;;;;;;;;;18.00;16.00;;;;;9.60;63.14;100458.28;5081682;27;45340;-76
2024/03/25 02:46:15;;;;;;;;;21.75;17.25;;;;;9.62;63.37;100461.78;5081534;28;45414;-76
2024/03/25 02:48:40;;;;;;;;;16.00;13.00;;;;;9.54;63.57;100445.16;5081900;27;45397;-76
2024/03/25 02:51:06;;;;;;;;;12.50;11.00;;;;;9.59;63.24;100445.88;5081300;28;52697;-76
2024/03/25 02:53:31;;;;;;;;;14.75;13.50;;;;;9.58;63.27;100448.59;5081467;27;52101;-76
2024/03/25 02:55:56;;;;;;;;;17.00;10.50;;;;;9.54;63.74;100441.59;5081205;28;50042;-76
2024/03/25 02:58:22;;;;;;;;;19.50;14.75;;;;;9.64;63.64;100454.59;5081810;28;45393;-76
2024/03/25 03:00:47;;;;;;;;;9.75;9.50;;;;;9.60;63.10;100447.59;5078797;28;45613;-76
2024/03/25 03:03:12;;;;;;;;;17.25;14.00;;;;;9.59;63.33;100445.03;5080319;28;47142;-76
2024/03/25 03:05:38;;;;;;;;;17.75;15.00;;;;;9.58;63.25;100448.59;5081277;28;45450;-76
2024/03/25 03:08:03;;;;;;;;;17.75;15.25;;;;;9.59;63.27;100448.56;5081644;27;45534;-76
2024/03/25 03:10:29;;;;;;;;;15.25;12.50;;;;;9.58;63.39;100448.59;5080027;28;45384;-76
2024/03/25 03:12:54;;;;;;;;;0.00;0.00;;;;;9.35;63.53;100412.03;5081374;28;45562;-76
2024/03/25 03:15:19;;;;;;;;;16.75;14.25;;;;;9.52;63.72;100441.69;5078671;27;45378;-76
2024/03/25 03:17:45;;;;;;;;;15.50;13.75;;;;;9.42;63.49;100421.56;5087232;27;53203;-76
2024/03/25 03:20:11;;;;;;;;;18.25;15.75;;;;;9.44;63.32;100433.94;5081341;27;45629;-76
2024/03/25 03:22:36;;;;;;;;;18.00;15.75;;;;;9.37;63.63;100432.41;5097065;27;48133;-76
2024/03/25 03:25:02;;;;;;;;;16.50;15.25;;;;;9.38;63.78;100436.78;5080605;28;56180;-76
2024/03/25 03:27:27;;;;;;;;;20.75;19.50;;;;;9.38;63.87;100433.25;5081185;28;45625;-76
2024/03/25 03:29:53;;;;;;;;;21.75;17.75;;;;;9.35;64.25;100412.03;5080850;27;45414;-76
2024/03/25 03:32:18;;;;;;;;;8.25;6.00;;;;;9.37;63.73;100410.19;5080603;27;46352;-76
2024/03/25 03:34:43;;;;;;;;;19.25;14.75;;;;;9.43;64.11;100410.88;5079687;28;46915;-76
2024/03/25 03:37:09;;;;;;;;;14.50;14.50;;;;;9.41;63.88;100411.84;5081081;28;45424;-76
2024/03/25 03:39:34;;;;;;;;;17.25;14.25;;;;;9.30;63.86;100396.22;5080804;28;46981;-76
2024/03/25 03:41:59;;;;;;;;;14.75;12.75;;;;;9.37;64.45;100397.78;5081087;27;45460;-76
2024/03/25 03:44:24;;;;;;;;;20.00;17.25;;;;;9.35;63.91;100396.06;5079282;28;45747;-76
2024/03/25 03:46:50;;;;;;;;;19.50;14.75;;;;;9.38;64.71;100403.97;5081049;27;45458;-76
2024/03/25 03:49:15;;;;;;;;;16.25;16.00;;;;;9.34;64.58;100394.31;5080375;28;51209;-75
2024/03/25 03:51:41;;;;;;;;;17.50;14.00;;;;;9.35;64.22;100401.38;5080874;27;46331;-76
2024/03/25 03:54:06;;;;;;;;;19.75;17.00;;;;;9.32;64.75;100389.06;5080226;28;55511;-76
2024/03/25 03:56:31;;;;;;;;;21.00;15.75;;;;;9.30;64.29;100384.69;5080846;27;45503;-76
2024/03/25 03:58:56;;;;;;;;;18.75;16.50;;;;;9.36;64.49;100392.50;5080554;27;45323;-76
2024/03/25 04:01:22;;;;;;;;;18.00;16.00;;;;;9.25;64.82;100367.09;5079155;28;46976;-76
2024/03/25 04:03:47;;;;;;;;;22.00;21.50;;;;;9.32;64.68;100372.19;5079285;28;45363;-75
2024/03/25 04:06:13;;;;;;;;;15.00;14.75;;;;;9.40;64.50;100381.66;5080788;28;46814;-75
2024/03/25 04:08:40;;;;;;;;;18.75;17.00;;;;;9.33;64.59;100369.47;5079121;28;45663;-75
2024/03/25 04:11:06;;;;;;;;;22.75;18.50;;;;;9.27;64.71;100365.25;5092551;27;47546;-75
2024/03/25 04:13:33;;;;;;;;;16.25;15.75;;;;;9.37;64.28;100381.78;5077081;28;45789;-76
2024/03/25 04:16:02;;;;;;;;;27.00;18.00;;;;;9.35;64.52;100364.09;5080394;27;45405;-75
2024/03/25 04:18:28;;;;;;;;;18.00;16.00;;;;;9.31;64.27;100367.81;5080261;27;45567;-75
2024/03/25 04:20:53;;;;;;;;;20.75;17.00;;;;;9.30;64.26;100355.41;5080230;28;45648;-75
2024/03/25 04:23:18;;;;;;;;;17.75;15.25;;;;;9.31;64.39;100351.81;5079070;28;45450;-75
2024/03/25 04:25:44;;;;;;;;;15.50;14.75;;;;;9.27;64.56;100341.25;5080190;27;45528;-75
2024/03/25 04:28:09;;;;;;;;;22.00;19.75;;;;;9.33;64.61;100336.66;5078503;28;50494;-75
2024/03/25 04:30:35;;;;;;;;;19.50;17.25;;;;;9.36;64.78;100339.22;5079989;28;45998;-75
2024/03/25 04:33:01;;;;;;;;;16.75;15.50;;;;;9.28;64.73;100320.81;5079926;27;45390;-75
2024/03/25 04:35:26;;;;;;;;;18.00;18.00;;;;;9.34;63.96;100331.28;5080258;28;45454;-75
2024/03/25 04:37:51;;;;;;;;;14.50;13.50;;;;;9.28;64.35;100329.66;5080069;27;45397;-75
2024/03/25 04:40:18;;;;;;;;;21.00;18.00;;;;;9.28;64.81;100319.00;5078712;28;47019;-75
2024/03/25 04:42:44;;;;;;;;;19.00;16.00;;;;;9.32;64.30;100318.91;5079935;27;45268;-75
2024/03/25 04:45:09;;;;;;;;;16.50;15.25;;;;;9.35;64.75;100317.00;5079961;27;45280;-75
2024/03/25 04:47:35;;;;;;;;;17.75;16.00;;;;;9.35;64.24;100325.00;5079780;27;45232;-75
2024/03/25 04:50:00;;;;;;;;;17.50;14.50;;;;;9.34;64.31;100317.06;5079522;28;51005;-75
2024/03/25 04:52:26;;;;;;;;;19.75;16.25;;;;;9.26;64.43;100301.38;5079868;27;45253;-75
2024/03/25 04:54:51;;;;;;;;;21.00;16.00;;;;;9.34;64.60;100315.28;5078714;28;45506;-75
2024/03/25 04:57:17;;;;;;;;;14.50;13.75;;;;;9.26;64.80;100301.38;5079551;27;45289;-75
2024/03/25 04:59:42;;;;;;;;;18.00;13.00;;;;;9.35;64.83;100313.50;5079619;27;46550;-75
2024/03/25 05:02:08;;;;;;;;;16.00;13.50;;;;;9.33;64.31;100312.69;5078150;28;45318;-75
2024/03/25 05:04:33;;;;;;;;;9.25;8.00;;;;;9.28;64.78;100304.84;5078532;28;45724;-75
2024/03/25 05:06:58;;;;;;;;;16.75;15.25;;;;;9.31;64.74;100312.72;5079676;28;45485;-75
2024/03/25 05:09:24;;;;;;;;;17.50;15.50;;;;;9.24;64.23;100297.88;5079561;27;45966;-75
2024/03/25 05:11:49;;;;;;;;;13.25;12.25;;;;;9.31;64.07;100309.19;5079590;28;45381;-75
2024/03/25 05:14:15;;;;;;;;;16.00;14.00;;;;;9.28;64.53;100303.03;5078942;28;54999;-75
2024/03/25 05:16:40;;;;;;;;;14.75;12.50;;;;;9.27;64.24;100303.97;5079324;27;45449;-75
2024/03/25 05:19:05;;;;;;;;;13.75;13.00;;;;;9.27;64.55;100314.63;5079426;27;45585;-75
2024/03/25 05:21:31;;;;;;;;;13.00;12.50;;;;;9.27;64.25;100303.09;5078659;28;61916;-75
2024/03/25 05:23:57;;;;;;;;;12.00;10.25;;;;;9.28;63.87;100296.84;5078763;27;45489;-75
2024/03/25 05:26:22;;;;;;;;;15.50;14.50;;;;;9.23;64.24;100288.16;5079158;27;45494;-75
2024/03/25 05:28:55;;;;;;;;;15.50;14.50;;;;;9.31;63.97;100286.09;5079205;28;45377;-75
2024/03/25 05:31:20;;;;;;;;;15.25;12.00;;;;;9.34;64.28;100301.09;5079142;27;45483;-75
2024/03/25 05:33:46;;;;;;;;;10.50;10.50;;;;;9.28;64.09;100289.72;5079461;28;45805;-75
2024/03/25 05:36:11;;;;;;;;;14.25;12.50;;;;;9.30;64.37;100294.13;5079182;27;45361;-75
2024/03/25 05:38:37;;;;;;;;;13.00;10.50;;;;;9.28;64.05;100294.19;5077761;28;46947;-75
2024/03/25 05:41:02;;;;;;;;;17.25;11.00;;;;;9.23;63.89;100285.47;5079088;28;45445;-75
2024/03/25 05:43:27;;;;;;;;;14.25;12.00;;;;;9.19;64.19;100271.41;5077885;28;45586;-75
2024/03/25 05:45:53;;;;;;;;;12.25;11.75;;;;;9.28;64.20;100296.84;5078965;27;45416;-75
2024/03/25 05:48:20;;;;;;;;;10.50;9.25;;;;;9.25;64.00;100287.19;5079095;27;45452;-75
2024/03/25 05:50:45;;;;;;;;;13.25;13.00;;;;;9.30;64.49;100286.16;5078810;27;45670;-75
2024/03/25 05:53:10;;;;;;;;;15.00;13.00;;;;;9.21;64.22;100274.88;5079131;28;45280;-75
2024/03/25 05:55:35;;;;;;;;;15.50;14.00;;;;;9.28;64.07;100284.38;5078890;27;45317;-75
2024/03/25 05:58:02;;;;;;;;;12.75;11.25;;;;;9.27;63.94;100289.75;5078493;28;58755;-75
2024/03/25 06:00:28;;;;;;;;;15.50;11.25;;;;;9.15;63.86;100275.09;5078676;27;45650;-75
2024/03/25 06:02:53;;;;;;;;;10.75;10.75;;;;;9.26;63.98;100293.38;5077541;28;45466;-75
2024/03/25 06:05:19;;;;;;;;;20.25;14.50;;;;;9.18;64.18;100274.13;5078630;27;45527;-75
2024/03/25 06:07:44;;;;;;;;;11.50;9.00;;;;;9.16;64.10;100274.16;5076940;28;47758;-75
2024/03/25 06:10:10;;;;;;;;;15.50;13.75;;;;;9.23;63.83;100285.47;5077164;28;55112;-75
2024/03/25 06:12:35;;;;;;;;;17.00;13.50;;;;;9.13;63.85;100270.75;5078742;27;46635;-75
2024/03/25 06:15:00;;;;;;;;;12.75;12.75;;;;;9.14;63.98;100276.03;5078244;28;51331;-75
2024/03/25 06:17:26;;;;;;;;;13.00;8.00;;;;;9.19;64.22;100283.84;5078455;27;46092;-75
2024/03/25 06:19:52;;;;;;;;;11.50;9.75;;;;;9.17;64.49;100275.03;5078417;28;45380;-75
2024/03/25 06:22:17;;;;;;;;;14.50;13.25;;;;;9.13;64.01;100271.59;5078926;27;45645;-75
2024/03/25 06:24:44;;;;;;;;;18.25;16.00;;;;;9.13;64.02;100252.97;5078451;28;45619;-75
2024/03/25 06:27:09;;;;;;;;;18.50;14.00;;;;;9.11;64.07;100249.50;5077769;27;45672;-75
2024/03/25 06:29:35;;;;;;;;;18.50;10.75;;;;;9.13;64.27;100249.44;5078252;27;45460;-75
2024/03/25 06:34:45;;;;;;;;;15.00;13.50;;;;;9.10;64.32;100258.38;5080522;28;45455;-75
2024/03/25 06:37:10;;;;;;;;;13.75;13.75;;;;;8.93;64.43;100213.72;5081385;28;49599;-75
2024/03/25 06:39:35;;;;;;;;;15.00;14.75;;;;;9.08;64.50;100233.63;5081697;28;48926;-75
2024/03/25 06:42:01;;;;;;;;;12.50;10.25;;;;;9.08;65.00;100231.81;5082102;27;45298;-75
2024/03/25 06:44:26;;;;;;;;;13.00;13.00;;;;;9.13;64.84;100237.00;5081660;28;45334;-75
2024/03/25 06:46:51;;;;;;;;;13.25;11.50;;;;;9.04;64.95;100216.88;5080288;28;46169;-75
2024/03/25 06:49:16;;;;;;;;;9.50;7.50;;;;;9.08;65.17;100225.63;5080228;28;47103;-76
2024/03/25 06:51:42;;;;;;;;;13.00;9.75;;;;;9.09;64.56;100222.06;5081466;28;50603;-75
2024/03/25 06:54:07;;;;;;;;;14.00;14.00;;;;;9.09;65.15;100228.25;5081695;28;45240;-75
2024/03/25 06:56:32;;;;;;;;;14.75;13.50;;;;;9.09;65.20;100230.91;5081373;27;45614;-75
2024/03/25 06:58:58;;;;;;;;;10.00;10.00;;;;;9.01;64.87;100224.97;5081057;27;51366;-75
2024/03/25 07:01:23;;;;;;;;;17.50;14.50;;;;;8.93;65.03;100197.75;5080935;28;57046;-75
2024/03/25 07:03:48;;;;;;;;;15.00;13.00;;;;;9.11;65.51;100230.84;5081490;27;45618;-75
2024/03/25 07:06:14;;;;;;;;;14.50;13.50;;;;;8.94;65.60;100190.63;5081379;27;46386;-75
2024/03/25 07:08:39;;;;;;;;;18.00;15.00;;;;;9.14;65.74;100224.53;5081308;28;45548;-76
2024/03/25 07:11:04;;;;;;;;;15.00;13.25;;;;;9.08;65.88;100212.31;5081422;28;45410;-75
2024/03/25 07:13:29;;;;;;;;;13.25;13.25;;;;;9.09;65.55;100217.59;5080610;27;52895;-75
2024/03/25 07:15:55;;;;;;;;;12.75;12.50;;;;;9.00;65.55;100199.25;5080914;28;52125;-75
2024/03/25 07:18:20;;;;;;;;;16.25;14.00;;;;;9.01;66.23;100193.03;5081087;27;45343;-75
2024/03/25 07:20:46;;;;;;;;;18.75;13.25;;;;;9.05;66.55;100200.00;5080056;28;45407;-75
2024/03/25 07:23:11;;;;;;;;;15.75;14.50;;;;;9.09;66.40;100208.75;5080512;28;63446;-75
2024/03/25 07:25:37;;;;;;;;;15.25;14.00;;;;;9.06;66.13;100199.06;5079600;28;46935;-75
2024/03/25 07:28:03;;;;;;;;;16.00;13.00;;;;;9.11;66.37;100206.88;5081072;27;45507;-75
2024/03/25 07:30:29;;;;;;;;;15.00;14.50;;;;;9.11;66.37;100208.69;5079586;28;45321;-75
2024/03/25 07:32:55;;;;;;;;;19.75;15.25;;;;;9.07;66.90;100202.56;5082870;27;45326;-75
2024/03/25 07:35:21;;;;;;;;;12.50;12.50;;;;;9.02;66.93;100200.09;5080920;28;46414;-75
2024/03/25 07:37:46;;;;;;;;;14.00;10.50;;;;;8.84;67.21;100167.00;5079704;28;45392;-75
2024/03/25 07:40:11;;;;;;;;;14.25;13.25;;;;;9.01;66.92;100190.34;5081314;27;45374;-75
2024/03/25 07:42:37;;;;;;;;;16.00;14.50;;;;;9.13;67.32;100199.72;5081033;27;45510;-75
2024/03/25 07:45:04;;;;;;;;;11.25;9.25;;;;;9.17;67.64;100189.81;5080559;27;45263;-75
2024/03/25 07:47:30;;;;;;;;;12.50;12.25;;;;;9.12;67.26;100178.47;5080293;27;45692;-75
2024/03/25 07:49:55;;;;;;;;;11.75;9.00;;;;;9.03;67.62;100161.88;5080925;27;45349;-75
2024/03/25 07:52:21;;;;;;;;;9.50;8.50;;;;;9.25;67.78;100182.44;5080550;28;46518;-76
2024/03/25 07:54:47;;;;;;;;;13.75;10.50;;;;;9.16;67.23;100154.34;5079321;28;46993;-75
2024/03/25 07:57:12;;;;;;;;;12.75;9.75;;;;;9.30;67.58;100175.13;5080503;27;45784;-75
2024/03/25 07:59:37;;;;;;;;;10.75;10.75;;;;;9.33;67.72;100174.19;5080922;27;45445;-75
2024/03/25 08:02:03;;;;;;;;;16.25;12.75;;;;;9.34;67.72;100167.91;5080313;28;49321;-75
2024/03/25 08:04:29;;;;;;;;;12.50;8.75;;;;;9.35;67.49;100159.84;5078715;28;54717;-75
2024/03/25 08:06:54;;;;;;;;;11.25;9.00;;;;;9.34;68.15;100144.81;5080566;27;45280;-74
2024/03/25 08:09:19;;;;;;;;;9.50;8.00;;;;;9.38;67.39;100145.56;5079390;28;45473;-74
2024/03/25 08:11:45;;;;;;;;;11.50;9.00;;;;;9.40;67.68;100146.38;5080451;27;45247;-75
2024/03/25 08:14:10;;;;;;;;;10.00;8.00;;;;;9.38;67.89;100140.25;5078795;28;47406;-74
2024/03/25 08:16:36;;;;;;;;;10.00;8.50;;;;;9.37;67.76;100130.50;5080037;28;47051;-74
2024/03/25 08:19:01;;;;;;;;;10.25;9.00;;;;;9.50;67.95;100144.25;5080482;27;45553;-74
2024/03/25 08:21:27;;;;;;;;;9.75;9.00;;;;;9.49;67.58;100135.38;5080238;27;45536;-72
2024/03/25 08:23:52;;;;;;;;;9.75;8.00;;;;;9.43;67.83;100120.50;5080193;27;46297;-72
2024/03/25 08:26:17;;;;;;;;;12.50;9.50;;;;;9.54;67.69;100124.53;5078630;28;45636;-72
2024/03/25 08:28:43;;;;;;;;;10.25;8.50;;;;;9.59;67.34;100123.44;5080160;28;45627;-73
2024/03/25 08:31:08;;;;;;;;;7.50;7.50;;;;;9.57;67.32;100109.31;5078634;28;45712;-72
2024/03/25 08:33:34;;;;;;;;;10.75;9.75;;;;;9.67;67.14;100116.94;5078207;28;62279;-72
2024/03/25 08:35:59;;;;;;;;;10.25;8.75;;;;;9.62;67.89;100083.38;5079904;27;45455;-73
2024/03/25 08:38:24;;;;;;;;;7.75;7.25;;;;;9.80;67.48;100108.41;5080335;27;45424;-75
2024/03/25 08:40:51;;;;;;;;;7.75;7.50;;;;;9.81;67.67;100098.63;5079793;28;45975;-73
2024/03/25 08:43:17;;;;;;;;;10.00;8.25;;;;;9.80;67.60;100095.06;5079771;28;45405;-75
2024/03/25 08:45:42;;;;;;;;;10.75;7.00;;;;;9.89;67.74;100096.53;5079590;27;45660;-75
2024/03/25 08:48:08;;;;;;;;;8.25;8.25;;;;;9.90;67.43;100090.25;5080293;27;45407;-76
2024/03/25 08:50:33;;;;;;;;;8.00;7.50;;;;;9.93;67.59;100082.13;5079718;27;45648;-73
2024/03/25 08:52:58;;;;;;;;;8.75;8.00;;;;;10.10;67.72;100105.44;5079950;28;45576;-73
2024/03/25 08:55:24;;;;;;;;;9.50;7.50;;;;;10.10;67.74;100094.78;5079537;28;45415;-75
2024/03/25 08:57:50;;;;;;;;;11.25;8.75;;;;;10.16;67.23;100105.22;5078888;27;45513;-76
2024/03/25 09:00:18;;;;;;;;;7.75;7.00;;;;;10.22;67.47;100098.75;5079605;28;45341;-75
2024/03/25 09:02:43;;;;;;;;;8.00;7.00;;;;;10.31;67.58;100094.84;5079550;27;46256;-75
2024/03/25 09:05:09;;;;;;;;;6.50;5.00;;;;;10.38;67.43;100086.53;5079702;28;45387;-75
2024/03/25 09:07:34;;;;;;;;;8.50;6.25;;;;;10.42;66.89;100081.94;5079836;28;45525;-76
2024/03/25 09:12:44;;;;;;;;;7.25;7.00;;;;;10.53;67.26;100049.47;5079556;28;45397;-75
2024/03/25 09:15:09;;;;;;;;;8.00;8.00;;;;;10.57;67.05;100048.41;5079456;27;45326;-76
2024/03/25 09:17:38;;;;;;;;;6.75;6.00;;;;;10.59;66.99;100038.50;5079573;27;45503;-76
2024/03/25 09:20:08;;;;;;;;;6.25;4.00;;;;;10.66;67.19;100041.78;5079302;28;45554;-77
2024/03/25 09:22:33;;;;;;;;;9.00;7.50;;;;;10.75;67.09;100036.91;5079409;27;46214;-75
2024/03/25 09:24:58;;;;;;;;;8.75;8.00;;;;;10.83;66.87;100039.25;5079158;27;45613;-75
2024/03/25 09:27:24;;;;;;;;;5.25;5.00;;;;;10.80;67.08;100017.16;5079287;28;45510;-75
2024/03/25 09:29:49;;;;;;;;;9.00;6.75;;;;;10.96;66.88;100025.34;5077767;28;45478;-75
2024/03/25 09:32:14;;;;;;;;;10.25;8.00;;;;;10.94;67.10;100022.72;5079105;27;47165;-76
2024/03/25 09:34:40;;;;;;;;;8.50;5.50;;;;;11.03;67.04;100018.81;5079302;27;45460;-77
2024/03/25 09:37:05;;;;;;;;;8.00;6.50;;;;;11.07;66.26;100015.91;5079487;27;45436;-79
2024/03/25 09:39:30;;;;;;;;;8.00;6.00;;;;;11.10;66.62;100007.75;5077041;28;67125;-70
2024/03/25 09:42:01;;;;;;;;;8.50;4.00;;;;;11.19;66.44;100000.25;5079344;27;46474;-76
2024/03/25 09:44:31;;;;;;;;;6.50;6.50;;;;;10.99;66.22;99956.63;5077660;28;46286;-76
2024/03/25 09:46:56;;;;;;;;;6.00;6.00;;;;;11.30;66.64;99990.78;5079297;27;45500;-76
2024/03/25 09:49:23;;;;;;;;;6.50;5.50;;;;;11.42;66.89;99983.13;5078934;27;45591;-64
2024/03/25 09:51:52;;;;;;;;;8.25;4.50;;;;;11.40;66.63;99964.50;5079076;28;45344;-63
2024/03/25 09:54:17;;;;;;;;;6.25;5.75;;;;;11.57;66.98;99971.69;5078986;27;45538;-61
2024/03/25 09:56:43;;;;;;;;;6.50;5.50;;;;;11.74;66.15;99986.03;5079146;28;45432;-61
2024/03/25 09:59:08;;;;;;;;;4.25;3.00;;;;;11.77;65.67;99981.41;5077396;28;45708;-60
2024/03/25 10:01:34;;;;;;;;;5.50;5.50;;;;;11.64;65.53;99945.53;5078868;27;45391;-60
2024/03/25 10:03:59;;;;;;;;;3.50;3.50;;;;;11.70;65.18;99931.84;5078836;27;45327;-61
2024/03/25 10:06:25;;;;;;;;;6.00;4.00;;;;;11.72;64.45;99935.31;5079027;27;45445;-60
2024/03/25 10:08:53;;;;;;;;;3.75;3.50;;;;;11.72;64.84;99927.28;5078088;28;46125;-60
2024/03/25 10:11:19;;;;;;;;;5.00;4.00;;;;;11.97;64.31;99952.84;5087005;27;47254;-60
2024/03/25 10:13:45;;;;;;;;;3.75;3.75;;;;;12.01;63.89;99949.94;5091072;27;45999;-60
2024/03/25 10:16:11;;;;;;;;;5.75;4.75;;;;;12.08;63.71;99941.56;5073864;28;45344;-60
2024/03/25 10:18:36;;;;;;;;;6.00;4.00;;;;;12.11;63.83;99934.28;5080777;28;45475;-60
2024/03/25 10:21:03;;;;;;;;;3.50;3.50;;;;;12.01;63.70;99908.94;5082119;27;45428;-60
2024/03/25 10:23:29;;;;;;;;;2.00;2.00;;;;;12.11;63.05;99907.53;5082240;27;45439;-60
2024/03/25 10:25:55;;;;;;;;;3.75;3.75;;;;;12.21;62.95;99914.13;5080908;28;45445;-60
2024/03/25 10:28:20;;;;;;;;;4.00;3.25;;;;;12.38;62.76;99940.00;5081718;27;45763;-60
2024/03/25 10:30:47;;;;;;;;;3.50;3.50;;;;;12.30;61.96;99909.25;5080245;28;47103;-60
2024/03/25 10:33:12;;;;;;;;;3.25;3.00;;;;;12.46;61.29;99931.53;5082069;28;45460;-60
2024/03/25 10:35:39;;;;;;;;;5.00;3.00;;;;;12.34;60.34;99890.25;5082190;27;45448;-60
2024/03/25 10:38:06;;;;;;;;;2.00;2.00;;;;;12.52;60.50;99898.25;5080628;28;45782;-60
2024/03/25 10:40:37;;;;;;;;;3.00;3.00;;;;;12.48;59.54;99875.25;5077313;28;47183;-60
2024/03/25 10:43:08;;;;;;;;;3.25;2.00;;;;;12.45;58.86;99872.78;5081356;28;45721;-60
2024/03/25 10:45:55;;;;;;;;;4.75;3.25;;;;;12.60;59.36;99875.47;5080804;28;45579;-60
2024/03/25 10:48:34;;;;;;;;;4.00;2.75;;;;;12.50;59.26;99850.16;5081778;27;45475;-60
2024/03/25 10:51:03;;;;;;;;;2.25;2.00;;;;;12.82;58.91;99886.81;5081741;27;45334;-62
2024/03/25 10:53:30;;;;;;;;;2.75;2.75;;;;;12.79;58.29;99866.41;5097587;27;45824;-62
2024/03/25 10:55:56;;;;;;;;;1.75;1.75;;;;;12.81;57.59;99844.91;5081768;27;45528;-61
2024/03/25 10:58:22;;;;;;;;;2.75;2.00;;;;;12.82;57.99;99842.16;5081505;27;45634;-62
2024/03/25 11:00:50;;;;;;;;;3.00;2.75;;;;;12.85;56.78;99828.59;5080035;28;46211;-62
2024/03/25 11:03:16;;;;;;;;;2.75;1.75;;;;;12.95;56.88;99835.16;5081572;27;45309;-62
2024/03/25 11:05:42;;;;;;;;;3.75;3.75;;;;;12.95;57.15;99829.78;5080140;28;45478;-62
2024/03/25 11:08:14;;;;;;;;;2.25;2.25;;;;;12.92;56.78;99803.16;5081622;28;45500;-62
2024/03/25 11:10:41;;;;;;;;;2.00;2.00;;;;;13.20;56.87;99833.75;5081208;27;45641;-62
2024/03/25 11:13:13;;;;;;;;;3.00;3.00;;;;;13.05;56.55;99795.31;5081293;27;45457;-62
2024/03/25 11:15:47;;;;;;;;;2.75;2.25;;;;;13.24;56.63;99815.66;5081539;27;45325;-62
2024/03/25 11:18:16;;;;;;;;;4.00;4.00;;;;;13.18;56.74;99792.78;5079916;28;45723;-62